Time;durP1;ratioP1;P1;durP2;ratioP2;P2;SDS_P1;SDS_P2;PMS_P1;PMS_P2;Temp;Humidity;BMP_temperature;BMP_pressure;BME280_temperature;BME280_humidity;BME280_pressure;Samples;Min_cycle;Max_cycle;Signal;HPM_P1;HPM_P2
2023/03/09 00:02:20;;;;;;;45.78;22.00;;;1.80;99.90;;;;;;5023110;28;20026;-72
2023/03/09 00:04:46;;;;;;;45.75;21.08;;;1.80;99.90;;;;;;5034231;28;20018;-72
2023/03/09 00:07:11;;;;;;;44.83;21.55;;;1.80;99.90;;;;;;5029529;28;20035;-71
2023/03/09 00:09:37;;;;;;;44.13;21.20;;;1.80;99.90;;;;;;5033789;28;20018;-71
2023/03/09 00:12:03;;;;;;;45.47;22.13;;;1.80;99.90;;;;;;5016895;28;20369;-72
2023/03/09 01:48:52;;;;;;;30.27;14.95;;;1.80;99.90;;;;;;3981851;28;20136;-71
2023/03/09 01:51:19;;;;;;;31.35;15.88;;;1.90;99.90;;;;;;5036232;28;20084;-71
2023/03/09 01:53:47;;;;;;;32.13;14.80;;;1.80;99.90;;;;;;5033686;28;20405;-71
2023/03/09 01:56:16;;;;;;;30.92;14.85;;;1.80;99.90;;;;;;5051838;28;20078;-71
2023/03/09 01:58:41;;;;;;;29.38;15.07;;;1.80;99.90;;;;;;5042195;28;20033;-71
2023/03/09 02:01:10;;;;;;;29.33;15.07;;;1.90;99.90;;;;;;5019351;28;20499;-71
2023/03/09 02:03:39;;;;;;;27.60;14.07;;;1.90;99.90;;;;;;5036452;28;20435;-71
2023/03/09 02:06:05;;;;;;;26.20;13.55;;;1.90;99.90;;;;;;5017038;28;20053;-71
2023/03/09 02:08:32;;;;;;;29.55;14.82;;;1.80;99.90;;;;;;5034007;28;20598;-71
2023/03/09 02:11:05;;;;;;;30.25;14.32;;;1.80;99.90;;;;;;5053410;28;20471;-71
2023/03/09 02:13:35;;;;;;;29.10;14.43;;;1.80;99.90;;;;;;5054143;28;20055;-71
2023/03/09 02:16:01;;;;;;;26.35;13.55;;;1.80;99.90;;;;;;5042753;28;20033;-71
2023/03/09 02:18:27;;;;;;;29.02;13.45;;;1.80;99.90;;;;;;5045415;28;20044;-71
2023/03/09 02:21:17;;;;;;;25.95;13.48;;;1.90;99.90;;;;;;5052809;28;20024;-71
2023/03/09 02:24:28;;;;;;;25.77;13.40;;;1.80;99.90;;;;;;5046772;28;20033;-71
2023/03/09 02:27:01;;;;;;;25.15;12.90;;;1.80;99.90;;;;;;5043768;28;20036;-71
2023/03/09 02:29:28;;;;;;;25.63;12.48;;;1.90;99.90;;;;;;5049072;28;20434;-71
2023/03/09 02:31:54;;;;;;;26.88;13.02;;;1.80;99.90;;;;;;5015694;28;20021;-71
2023/03/09 02:34:20;;;;;;;25.63;12.57;;;1.80;99.90;;;;;;5033990;28;20071;-71
2023/03/09 02:36:45;;;;;;;24.38;12.90;;;1.80;99.90;;;;;;5046443;28;20439;-71
2023/03/09 02:39:30;;;;;;;23.88;12.30;;;1.80;99.90;;;;;;5046939;28;20040;-71
2023/03/09 02:41:57;;;;;;;23.38;11.95;;;1.80;99.90;;;;;;5033376;28;20029;-71
2023/03/09 02:44:25;;;;;;;22.42;11.85;;;1.90;99.90;;;;;;5047028;28;20021;-71
2023/03/09 02:46:50;;;;;;;22.30;11.93;;;1.90;99.90;;;;;;5050490;28;20060;-71
2023/03/09 02:49:17;;;;;;;21.35;11.52;;;1.90;99.90;;;;;;4988739;28;1093561;-71
2023/03/09 02:51:42;;;;;;;20.40;11.10;;;1.90;99.90;;;;;;5019151;28;20108;-71
2023/03/09 02:54:08;;;;;;;23.15;11.23;;;1.90;99.90;;;;;;5033789;28;20080;-71
2023/03/09 02:56:34;;;;;;;23.23;12.55;;;1.90;99.90;;;;;;5030452;28;20500;-71
2023/03/09 02:59:02;;;;;;;20.55;10.80;;;1.90;99.90;;;;;;5021698;28;20343;-71
2023/03/09 03:01:28;;;;;;;22.58;11.55;;;1.90;99.90;;;;;;5031517;28;20038;-71
2023/03/09 03:03:54;;;;;;;24.23;11.98;;;1.90;99.90;;;;;;5020328;28;20022;-71
2023/03/09 03:06:19;;;;;;;21.02;11.40;;;1.90;99.90;;;;;;5032511;28;20036;-71
2023/03/09 03:08:45;;;;;;;22.35;11.93;;;1.90;99.90;;;;;;5013428;28;20068;-71
2023/03/09 03:11:11;;;;;;;24.70;11.45;;;1.90;99.90;;;;;;5022697;28;20033;-71
2023/03/09 03:13:36;;;;;;;23.50;12.02;;;1.90;99.90;;;;;;5018370;28;20025;-71
2023/03/09 03:16:03;;;;;;;23.10;12.38;;;1.90;99.90;;;;;;5031886;28;20582;-71
2023/03/09 03:18:29;;;;;;;22.52;11.65;;;2.00;99.90;;;;;;5031387;28;20041;-71
2023/03/09 03:20:55;;;;;;;21.55;11.25;;;2.00;99.90;;;;;;5031829;28;20040;-71
2023/03/09 03:23:22;;;;;;;20.20;10.95;;;2.00;99.90;;;;;;5029416;28;20036;-71
2023/03/09 03:25:48;;;;;;;23.23;11.50;;;2.00;99.90;;;;;;5026427;28;20057;-71
2023/03/09 03:28:13;;;;;;;23.02;11.55;;;2.00;99.90;;;;;;5027138;28;20025;-71
2023/03/09 03:30:39;;;;;;;24.80;11.38;;;1.90;99.90;;;;;;5029038;28;20112;-71
2023/03/09 03:33:04;;;;;;;21.75;12.07;;;1.90;99.90;;;;;;5031984;28;20021;-71
2023/03/09 03:35:30;;;;;;;23.20;11.30;;;1.90;99.90;;;;;;5027156;28;20128;-71
2023/03/09 03:37:56;;;;;;;19.58;10.85;;;2.00;99.90;;;;;;5022869;28;20033;-71
2023/03/09 03:40:21;;;;;;;20.98;11.27;;;2.00;99.90;;;;;;5031952;28;20636;-71
2023/03/09 03:42:47;;;;;;;22.90;12.13;;;2.00;99.90;;;;;;5031839;28;20030;-71
2023/03/09 03:45:13;;;;;;;22.40;11.57;;;2.00;99.90;;;;;;5026760;28;20017;-71
2023/03/09 03:47:38;;;;;;;25.00;12.25;;;2.00;99.90;;;;;;5031829;28;20042;-72
2023/03/09 03:50:04;;;;;;;23.60;12.00;;;2.00;99.90;;;;;;5027298;28;20439;-71
2023/03/09 03:52:30;;;;;;;23.20;11.30;;;2.00;99.90;;;;;;5031044;28;20017;-71
2023/03/09 03:54:56;;;;;;;24.90;12.82;;;2.00;99.90;;;;;;5020371;28;20030;-71
2023/03/09 03:57:22;;;;;;;21.90;11.73;;;2.00;99.90;;;;;;5031619;28;20139;-71
2023/03/09 03:59:49;;;;;;;24.13;12.32;;;1.90;99.90;;;;;;5027192;28;20038;-71
2023/03/09 04:02:15;;;;;;;22.23;11.73;;;2.00;99.90;;;;;;5025542;28;20022;-71
2023/03/09 04:04:41;;;;;;;24.50;12.90;;;2.00;99.90;;;;;;5029225;28;20048;-71
2023/03/09 04:07:06;;;;;;;24.20;12.52;;;2.00;99.90;;;;;;5023650;28;20030;-71
2023/03/09 04:09:32;;;;;;;25.55;13.68;;;2.00;99.90;;;;;;5012875;28;20034;-71
2023/03/09 04:11:58;;;;;;;23.85;13.10;;;2.00;99.90;;;;;;5028678;28;20109;-71
2023/03/09 04:14:24;;;;;;;25.20;12.82;;;2.00;99.90;;;;;;5031256;28;20057;-71
2023/03/09 04:16:49;;;;;;;25.60;12.52;;;2.00;99.90;;;;;;5030583;28;20037;-71
2023/03/09 04:19:15;;;;;;;25.17;12.82;;;2.00;99.90;;;;;;5019558;28;20033;-71
2023/03/09 04:21:40;;;;;;;24.77;13.20;;;2.00;99.90;;;;;;5031466;28;20017;-71
2023/03/09 04:24:06;;;;;;;24.83;12.60;;;2.00;99.90;;;;;;5030705;28;20029;-71
2023/03/09 04:26:32;;;;;;;24.67;12.80;;;2.00;99.90;;;;;;5020674;28;20041;-71
2023/03/09 04:28:58;;;;;;;25.95;12.55;;;2.00;99.90;;;;;;5015810;28;20029;-72
2023/03/09 04:31:23;;;;;;;23.92;12.57;;;2.00;99.90;;;;;;5030930;28;20022;-72
2023/03/09 04:33:49;;;;;;;25.30;13.05;;;2.00;99.90;;;;;;5016339;28;20581;-72
2023/03/09 04:36:15;;;;;;;22.00;12.32;;;2.00;99.90;;;;;;5020682;28;20088;-72
2023/03/09 04:38:40;;;;;;;24.33;12.60;;;2.00;99.90;;;;;;5022738;28;20499;-71
2023/03/09 04:41:06;;;;;;;27.25;13.38;;;2.00;99.90;;;;;;5020055;28;20106;-72
2023/03/09 04:43:31;;;;;;;23.85;13.27;;;2.00;99.90;;;;;;5024536;28;20029;-72
2023/03/09 04:45:57;;;;;;;26.10;13.07;;;2.00;99.90;;;;;;5029493;28;20037;-71
2023/03/09 04:48:23;;;;;;;26.15;13.18;;;2.00;99.90;;;;;;5033238;28;20172;-71
2023/03/09 04:50:48;;;;;;;25.30;12.07;;;2.00;99.90;;;;;;5033527;28;20025;-71
2023/03/09 04:53:14;;;;;;;25.10;12.48;;;2.00;99.90;;;;;;5027979;28;20072;-71
2023/03/09 04:55:40;;;;;;;25.80;12.82;;;2.00;99.90;;;;;;4989625;28;20029;-72
2023/03/09 04:58:05;;;;;;;27.05;13.07;;;2.00;99.90;;;;;;5025941;28;20097;-72
2023/03/09 05:00:32;;;;;;;24.83;12.88;;;2.00;99.90;;;;;;5033845;28;20017;-71
2023/03/09 05:02:58;;;;;;;26.27;13.80;;;2.00;99.90;;;;;;5033771;28;20061;-71
2023/03/09 05:05:24;;;;;;;27.17;13.63;;;2.00;99.90;;;;;;5034033;28;20080;-71
2023/03/09 05:07:50;;;;;;;28.50;14.43;;;2.00;99.90;;;;;;5022763;28;20034;-72
2023/03/09 05:10:16;;;;;;;30.75;14.50;;;2.00;99.90;;;;;;5030308;28;20080;-71
2023/03/09 05:12:42;;;;;;;32.22;15.25;;;2.00;99.90;;;;;;5033330;28;20044;-71
2023/03/09 05:15:08;;;;;;;30.17;14.38;;;2.00;99.90;;;;;;5015634;28;20025;-72
2023/03/09 05:17:35;;;;;;;30.80;15.05;;;2.00;99.90;;;;;;5033521;28;20481;-71
2023/03/09 05:20:01;;;;;;;32.35;14.98;;;2.00;99.90;;;;;;5020430;28;20049;-71
2023/03/09 05:22:27;;;;;;;33.63;15.10;;;2.00;99.90;;;;;;5014354;28;20029;-72
2023/03/09 05:24:52;;;;;;;33.05;15.10;;;2.00;99.90;;;;;;5017044;28;20049;-71
2023/03/09 05:27:18;;;;;;;34.05;16.08;;;2.00;99.90;;;;;;5015594;28;20562;-71
2023/03/09 05:29:43;;;;;;;29.98;14.98;;;2.00;99.90;;;;;;5033578;28;20053;-71
2023/03/09 05:32:09;;;;;;;30.15;15.15;;;2.10;99.90;;;;;;5015501;28;20036;-71
2023/03/09 05:34:35;;;;;;;31.60;15.90;;;2.10;99.90;;;;;;5032180;28;20085;-71
2023/03/09 05:37:01;;;;;;;31.20;15.10;;;2.10;99.90;;;;;;5029709;28;20033;-72
2023/03/09 05:39:27;;;;;;;32.40;15.15;;;2.10;99.90;;;;;;5030164;28;20017;-72
2023/03/09 05:41:53;;;;;;;32.60;16.08;;;2.10;99.90;;;;;;5030543;28;20026;-71
2023/03/09 05:44:19;;;;;;;34.58;15.77;;;2.10;99.90;;;;;;5022754;28;20037;-72
2023/03/09 05:46:44;;;;;;;30.90;15.38;;;2.10;99.90;;;;;;5025237;28;20404;-71
2023/03/09 05:49:10;;;;;;;33.85;17.02;;;2.10;99.90;;;;;;5019202;28;20049;-72
2023/03/09 05:51:36;;;;;;;36.25;16.00;;;2.10;99.90;;;;;;5028694;28;20097;-72
2023/03/09 05:54:01;;;;;;;32.92;16.13;;;2.10;99.90;;;;;;5028317;28;20040;-71
2023/03/09 05:56:27;;;;;;;34.45;16.75;;;2.00;99.90;;;;;;5028085;28;20130;-71
2023/03/09 05:58:56;;;;;;;36.67;17.67;;;2.00;99.90;;;;;;5027288;28;20037;-72
2023/03/09 06:01:26;;;;;;;36.08;17.42;;;2.00;99.90;;;;;;5032868;28;20029;-72
2023/03/09 06:03:52;;;;;;;34.22;17.65;;;2.00;99.90;;;;;;5020802;28;20029;-72
2023/03/09 06:06:18;;;;;;;36.05;17.60;;;2.00;99.90;;;;;;5025997;28;20404;-72
2023/03/09 06:08:44;;;;;;;35.35;17.65;;;2.00;99.90;;;;;;5007311;28;20025;-72
2023/03/09 06:11:10;;;;;;;35.65;17.85;;;2.00;99.90;;;;;;5032448;28;20246;-72
2023/03/09 06:13:36;;;;;;;35.13;16.60;;;2.00;99.90;;;;;;5031355;28;20056;-72
2023/03/09 06:16:03;;;;;;;36.50;18.35;;;2.00;99.90;;;;;;5029407;28;20025;-72
2023/03/09 06:18:29;;;;;;;39.63;19.15;;;2.00;99.90;;;;;;5032633;28;20453;-72
2023/03/09 06:21:02;;;;;;;39.03;18.65;;;2.10;99.90;;;;;;5027763;28;20024;-72
2023/03/09 06:23:30;;;;;;;37.03;17.38;;;2.10;99.90;;;;;;5018883;28;20065;-71
2023/03/09 06:25:55;;;;;;;36.25;18.17;;;2.10;99.90;;;;;;5009066;28;20121;-71
2023/03/09 06:28:21;;;;;;;39.88;18.02;;;2.10;99.90;;;;;;5022946;28;20096;-71
2023/03/09 06:30:46;;;;;;;39.00;18.52;;;2.10;99.90;;;;;;5026990;28;20044;-71
2023/03/09 06:33:12;;;;;;;41.42;18.38;;;2.10;99.90;;;;;;5031432;28;20022;-71
2023/03/09 06:35:39;;;;;;;38.60;19.02;;;2.10;99.90;;;;;;5019672;28;20026;-71
2023/03/09 06:38:04;;;;;;;37.45;18.85;;;2.10;99.90;;;;;;5030981;28;20416;-71
2023/03/09 06:40:30;;;;;;;39.70;18.73;;;2.10;99.90;;;;;;5032780;28;20131;-71
2023/03/09 06:42:56;;;;;;;42.55;19.70;;;2.10;99.90;;;;;;5031478;28;20392;-72
2023/03/09 06:45:21;;;;;;;44.53;20.85;;;2.10;99.90;;;;;;5033386;28;20018;-71
2023/03/09 06:47:47;;;;;;;40.97;19.50;;;2.10;99.90;;;;;;5035203;28;20013;-71
2023/03/09 06:50:14;;;;;;;45.38;20.85;;;2.10;99.90;;;;;;5058404;28;20108;-72
2023/03/09 06:52:39;;;;;;;43.65;20.48;;;2.20;99.90;;;;;;5046828;28;20411;-72
2023/03/09 06:55:06;;;;;;;40.58;19.90;;;2.10;99.90;;;;;;5042276;28;20021;-71
2023/03/09 06:57:32;;;;;;;42.83;20.13;;;2.20;99.90;;;;;;5033582;28;20026;-72
2023/03/09 06:59:57;;;;;;;42.53;19.70;;;2.20;99.90;;;;;;5055241;28;20367;-71
2023/03/09 07:02:23;;;;;;;41.28;19.88;;;2.20;99.90;;;;;;5041185;28;20427;-71
2023/03/09 07:04:49;;;;;;;44.10;20.48;;;2.20;99.90;;;;;;5043169;28;20025;-72
2023/03/09 07:07:15;;;;;;;41.83;20.60;;;2.20;99.90;;;;;;5046880;28;20476;-71
2023/03/09 07:09:41;;;;;;;44.47;20.08;;;2.20;99.90;;;;;;5030983;28;20071;-71
2023/03/09 07:12:07;;;;;;;43.90;20.27;;;2.20;99.90;;;;;;5047405;28;20031;-71
2023/03/09 07:14:32;;;;;;;45.85;21.30;;;2.20;99.90;;;;;;5043185;28;20088;-71
2023/03/09 07:16:58;;;;;;;45.03;21.23;;;2.20;99.90;;;;;;5041852;28;20395;-72
2023/03/09 07:19:23;;;;;;;46.22;21.13;;;2.20;99.90;;;;;;5028852;28;20041;-72
2023/03/09 07:21:49;;;;;;;44.95;21.48;;;2.20;99.90;;;;;;5041216;28;20111;-72
2023/03/09 07:24:16;;;;;;;46.90;22.27;;;2.20;99.90;;;;;;5052128;28;20017;-72
2023/03/09 07:26:42;;;;;;;49.25;22.70;;;2.30;99.90;;;;;;5025396;28;20021;-72
2023/03/09 07:29:07;;;;;;;53.45;23.13;;;2.30;99.90;;;;;;5052249;28;20100;-72
2023/03/09 07:31:33;;;;;;;49.05;22.08;;;2.30;99.90;;;;;;5048565;28;20029;-72
2023/03/09 07:33:59;;;;;;;48.30;22.70;;;2.30;99.90;;;;;;5045697;28;20094;-72
2023/03/09 07:36:25;;;;;;;46.70;21.83;;;2.30;99.90;;;;;;5047282;28;20021;-72
2023/03/09 07:38:51;;;;;;;48.60;22.42;;;2.30;99.90;;;;;;5026403;28;20036;-72
2023/03/09 07:41:17;;;;;;;47.47;21.70;;;2.30;99.90;;;;;;5052945;28;20029;-72
2023/03/09 07:43:46;;;;;;;44.92;21.83;;;2.40;99.90;;;;;;5044137;28;20023;-73
2023/03/09 07:46:15;;;;;;;44.85;20.92;;;2.40;99.90;;;;;;5048791;28;20033;-72
2023/03/09 07:48:42;;;;;;;44.90;20.90;;;2.40;99.90;;;;;;5039210;28;20046;-73
2023/03/09 07:51:08;;;;;;;47.10;21.88;;;2.50;99.90;;;;;;5030907;28;20025;-72
2023/03/09 07:53:36;;;;;;;46.78;21.70;;;2.50;99.90;;;;;;5030586;28;20053;-72
2023/03/09 07:56:03;;;;;;;45.30;22.23;;;2.50;99.90;;;;;;5030851;28;20036;-72
2023/03/09 07:58:30;;;;;;;48.05;21.95;;;2.50;99.90;;;;;;5030187;28;20476;-72
2023/03/09 08:00:56;;;;;;;44.83;21.63;;;2.50;99.90;;;;;;5026760;28;20029;-72
2023/03/09 08:03:22;;;;;;;46.53;21.95;;;2.60;99.90;;;;;;5024502;28;20026;-72
2023/03/09 08:05:49;;;;;;;46.30;22.50;;;2.60;99.90;;;;;;5025688;28;20064;-72
2023/03/09 08:08:15;;;;;;;46.83;22.60;;;2.60;99.90;;;;;;5024922;28;20117;-72
2023/03/09 08:10:47;;;;;;;48.17;22.50;;;2.60;99.90;;;;;;5016545;28;20109;-72
2023/03/09 08:13:13;;;;;;;46.67;21.80;;;2.60;99.90;;;;;;5016223;28;20034;-72
2023/03/09 08:15:39;;;;;;;44.95;21.58;;;2.60;99.90;;;;;;5022964;28;20733;-72
2023/03/09 08:18:04;;;;;;;49.20;23.40;;;2.70;99.90;;;;;;5013339;28;20036;-72
2023/03/09 08:20:31;;;;;;;46.22;21.73;;;2.70;99.90;;;;;;5033676;28;20030;-72
2023/03/09 08:22:57;;;;;;;46.97;22.13;;;2.70;99.90;;;;;;5027864;28;20097;-72
2023/03/09 08:25:22;;;;;;;47.30;22.52;;;2.70;99.90;;;;;;5022612;28;20618;-72
2023/03/09 08:27:48;;;;;;;45.88;22.15;;;2.80;99.90;;;;;;5034139;28;20021;-72
2023/03/09 08:30:16;;;;;;;47.65;22.55;;;2.80;99.90;;;;;;5033957;28;20075;-72
2023/03/09 08:32:42;;;;;;;45.75;21.85;;;2.80;99.90;;;;;;5031781;28;20033;-72
2023/03/09 08:35:08;;;;;;;48.08;22.35;;;2.80;99.90;;;;;;5024897;28;20033;-72
2023/03/09 08:37:34;;;;;;;45.45;21.08;;;2.80;99.90;;;;;;5029578;28;20074;-72
2023/03/09 08:40:00;;;;;;;44.78;21.63;;;2.90;99.90;;;;;;5033730;28;20064;-72
2023/03/09 08:42:26;;;;;;;43.90;20.60;;;2.90;99.90;;;;;;5033285;28;20069;-72
2023/03/09 08:44:52;;;;;;;44.60;21.80;;;3.00;99.90;;;;;;5027305;28;20017;-72
2023/03/09 08:47:18;;;;;;;43.85;20.80;;;3.00;99.90;;;;;;5028244;28;20030;-72
2023/03/09 08:49:46;;;;;;;45.85;21.63;;;3.10;99.90;;;;;;5063089;28;20075;-71
2023/03/09 08:52:12;;;;;;;45.50;21.55;;;3.10;99.90;;;;;;5053566;28;20044;-71
2023/03/09 08:54:38;;;;;;;44.00;20.95;;;3.20;99.90;;;;;;5065645;28;20025;-71
2023/03/09 08:57:04;;;;;;;43.75;21.10;;;3.20;99.90;;;;;;5054291;28;20036;-71
2023/03/09 08:59:31;;;;;;;47.15;21.40;;;3.20;99.90;;;;;;5052545;28;20033;-72
2023/03/09 09:01:57;;;;;;;42.53;20.70;;;3.30;99.90;;;;;;5036128;28;20584;-71
2023/03/09 09:04:23;;;;;;;42.50;21.40;;;3.30;99.90;;;;;;5039514;28;20037;-72
2023/03/09 09:06:49;;;;;;;45.38;22.17;;;3.30;99.90;;;;;;5041900;28;20033;-72
2023/03/09 09:09:15;;;;;;;42.80;21.48;;;3.30;99.90;;;;;;5034262;28;20036;-71
2023/03/09 09:11:40;;;;;;;42.30;20.73;;;3.40;99.90;;;;;;5036189;28;20029;-72
2023/03/09 09:14:07;;;;;;;43.22;20.80;;;3.40;99.90;;;;;;5051486;28;20533;-71
2023/03/09 09:16:33;;;;;;;44.90;21.77;;;3.40;99.90;;;;;;5050685;28;20056;-71
2023/03/09 09:18:58;;;;;;;46.90;22.67;;;3.40;99.90;;;;;;5037176;28;20519;-71
2023/03/09 09:21:24;;;;;;;44.45;21.58;;;3.40;99.90;;;;;;5046385;28;20055;-71
2023/03/09 09:23:50;;;;;;;45.42;22.08;;;3.50;99.90;;;;;;5044161;28;20587;-71
2023/03/09 09:26:16;;;;;;;47.35;21.77;;;3.50;99.90;;;;;;5052008;28;20032;-71
2023/03/09 09:28:43;;;;;;;43.60;21.67;;;3.50;99.90;;;;;;5043471;28;20026;-71
2023/03/09 09:31:12;;;;;;;44.95;22.35;;;3.50;99.90;;;;;;5052116;28;20040;-71
2023/03/09 09:33:38;;;;;;;44.05;22.08;;;3.60;99.90;;;;;;5051695;28;20406;-71
2023/03/09 09:36:08;;;;;;;45.78;21.35;;;3.60;99.90;;;;;;5037628;28;20033;-71
2023/03/09 09:38:34;;;;;;;44.67;22.70;;;3.60;99.90;;;;;;5052860;28;20544;-71
2023/03/09 09:41:05;;;;;;;45.30;22.38;;;3.60;99.90;;;;;;5051868;28;20100;-71
2023/03/09 09:43:31;;;;;;;43.53;21.75;;;3.70;99.90;;;;;;5052633;28;20028;-71
2023/03/09 09:45:59;;;;;;;50.53;23.95;;;3.70;99.90;;;;;;5048745;28;20028;-71
2023/03/09 09:48:27;;;;;;;48.60;23.13;;;3.70;99.90;;;;;;5043462;28;20377;-71
2023/03/09 09:51:17;;;;;;;47.22;23.48;;;3.70;99.90;;;;;;5032072;28;20014;-72
2023/03/09 09:54:05;;;;;;;49.10;23.83;;;3.70;99.90;;;;;;5028008;28;20075;-71
2023/03/09 09:56:46;;;;;;;50.30;23.92;;;3.70;99.90;;;;;;5030173;28;20037;-71
2023/03/09 09:59:19;;;;;;;49.20;23.65;;;3.70;99.90;;;;;;5029276;28;20034;-71
2023/03/09 10:01:58;;;;;;;49.67;24.50;;;3.70;99.90;;;;;;5028096;28;20033;-71
2023/03/09 10:04:56;;;;;;;51.25;24.67;;;3.70;99.90;;;;;;5032523;28;20504;-71
2023/03/09 10:07:24;;;;;;;52.70;24.25;;;3.70;99.90;;;;;;5018607;28;20481;-72
2023/03/09 10:09:57;;;;;;;53.47;24.48;;;3.70;99.90;;;;;;5025723;28;20022;-71
2023/03/09 10:12:23;;;;;;;48.72;23.58;;;3.70;99.90;;;;;;5018774;28;20024;-71
2023/03/09 10:14:52;;;;;;;47.90;23.02;;;3.80;99.90;;;;;;5030477;28;20029;-71
2023/03/09 10:17:33;;;;;;;49.40;23.92;;;3.80;99.90;;;;;;5019645;28;20052;-71
2023/03/09 10:20:09;;;;;;;47.28;23.30;;;3.80;99.90;;;;;;5025330;28;20301;-71
2023/03/09 10:22:37;;;;;;;50.47;23.33;;;3.90;99.90;;;;;;5032012;28;20041;-71
2023/03/09 10:25:12;;;;;;;48.70;23.10;;;3.90;99.90;;;;;;5028224;28;20089;-71
2023/03/09 10:28:13;;;;;;;44.70;22.50;;;3.90;99.90;;;;;;5032005;28;20424;-71
2023/03/09 10:30:54;;;;;;;46.05;22.90;;;3.90;99.90;;;;;;5031168;28;20045;-71
2023/03/09 10:33:34;;;;;;;46.15;22.73;;;3.90;99.90;;;;;;5017870;28;20022;-71
2023/03/09 10:36:14;;;;;;;46.92;22.85;;;3.90;99.90;;;;;;5029255;28;20484;-71
2023/03/09 10:38:40;;;;;;;43.97;23.08;;;3.90;99.90;;;;;;5031016;28;20481;-71
2023/03/09 10:41:17;;;;;;;45.90;22.77;;;3.90;99.90;;;;;;5030785;28;20013;-72
2023/03/09 10:43:44;;;;;;;47.90;23.95;;;4.00;99.90;;;;;;5030976;28;20029;-72
2023/03/09 10:46:14;;;;;;;52.33;25.20;;;4.00;99.90;;;;;;5020701;28;20028;-72
2023/03/09 10:48:41;;;;;;;47.22;22.30;;;4.00;99.90;;;;;;5040680;28;20044;-72
2023/03/09 10:51:25;;;;;;;48.58;22.90;;;4.00;99.90;;;;;;5053401;28;20028;-72
2023/03/09 10:53:52;;;;;;;47.10;22.95;;;4.00;99.90;;;;;;5046565;28;20060;-72
2023/03/09 10:56:29;;;;;;;47.10;23.23;;;3.90;99.90;;;;;;5053806;28;20040;-72
2023/03/09 10:59:06;;;;;;;46.05;21.95;;;4.00;99.90;;;;;;5046890;28;20044;-72
2023/03/09 11:01:43;;;;;;;44.47;21.85;;;4.00;99.90;;;;;;5051670;28;20017;-72
2023/03/09 11:04:24;;;;;;;49.30;22.25;;;3.90;99.90;;;;;;5048674;28;20095;-72
2023/03/09 11:06:56;;;;;;;44.13;21.90;;;3.90;99.90;;;;;;5049881;28;20025;-72
2023/03/09 11:09:48;;;;;;;49.03;22.73;;;3.90;99.90;;;;;;5048905;28;20078;-71
2023/03/09 11:12:17;;;;;;;48.75;22.10;;;3.90;99.90;;;;;;5029059;28;20033;-72
2023/03/09 11:14:47;;;;;;;47.83;22.58;;;3.90;99.90;;;;;;5050415;28;20021;-72
2023/03/09 11:17:27;;;;;;;49.35;21.95;;;3.90;99.90;;;;;;5051246;28;20032;-71
2023/03/09 11:20:23;;;;;;;51.45;22.48;;;3.90;99.90;;;;;;5050433;28;20118;-72
2023/03/09 11:23:01;;;;;;;49.63;22.85;;;3.80;99.90;;;;;;5051775;28;20041;-71
2023/03/09 11:26:01;;;;;;;47.85;21.40;;;3.80;99.90;;;;;;5049720;28;20136;-71
2023/03/09 11:28:45;;;;;;;53.75;23.17;;;3.80;99.90;;;;;;5045521;28;20017;-71
2023/03/09 11:31:45;;;;;;;53.42;22.73;;;3.80;99.90;;;;;;5050076;28;20277;-71
2023/03/09 11:34:27;;;;;;;50.63;23.38;;;3.80;99.90;;;;;;5049340;28;20033;-71
2023/03/09 11:37:20;;;;;;;51.63;22.83;;;3.80;99.90;;;;;;5049048;28;20025;-71
2023/03/09 11:40:06;;;;;;;52.05;22.67;;;3.80;99.90;;;;;;5049065;28;20047;-71
2023/03/09 11:42:36;;;;;;;;;;;3.80;99.90;;;;;;5046473;28;20476;-72
2023/03/09 11:45:03;;;;;;;48.38;21.60;;;3.80;99.90;;;;;;5048287;28;19909;-71
2023/03/09 11:47:41;;;;;;;53.90;23.60;;;3.80;99.90;;;;;;5038371;28;20037;-71
2023/03/09 11:50:17;;;;;;;50.13;22.52;;;3.80;99.90;;;;;;5015657;28;20041;-71
2023/03/09 11:53:13;;;;;;;51.80;23.00;;;3.80;99.90;;;;;;5030038;28;20022;-72
2023/03/09 11:55:43;;;;;;;50.30;22.55;;;3.80;99.90;;;;;;5020350;28;20117;-71
2023/03/09 11:58:16;;;;;;;48.67;22.95;;;3.80;99.90;;;;;;5028816;28;20362;-71
2023/03/09 12:00:46;;;;;;;50.15;22.90;;;3.80;99.90;;;;;;5026628;28;20103;-72
2023/03/09 12:03:17;;;;;;;51.05;23.35;;;3.80;99.90;;;;;;5033194;28;20025;-72
2023/03/09 12:05:57;;;;;;;52.25;23.35;;;3.90;99.90;;;;;;5024480;28;20487;-72
2023/03/09 12:08:29;;;;;;;48.85;23.08;;;3.80;99.90;;;;;;5020429;28;20042;-71
2023/03/09 12:11:00;;;;;;;51.08;23.08;;;3.80;99.90;;;;;;5023172;28;20497;-70
2023/03/09 12:13:33;;;;;;;46.83;22.42;;;3.80;99.90;;;;;;5020571;28;20042;-70
2023/03/09 12:16:24;;;;;;;49.42;22.25;;;3.80;99.90;;;;;;5016933;28;20022;-70
2023/03/09 12:19:17;;;;;;;49.83;22.48;;;3.70;99.90;;;;;;5014382;28;20041;-71
2023/03/09 12:22:15;;;;;;;49.75;23.42;;;3.70;99.90;;;;;;5012253;28;20034;-71
2023/03/09 12:24:43;;;;;;;51.95;23.98;;;3.60;99.90;;;;;;5024946;28;20108;-70
2023/03/09 12:27:22;;;;;;;49.92;22.42;;;3.60;99.90;;;;;;5035303;28;20544;-70
2023/03/09 12:30:06;;;;;;;51.28;23.70;;;3.60;99.90;;;;;;5025326;28;20037;-71
2023/03/09 12:32:37;;;;;;;51.10;23.40;;;3.50;99.90;;;;;;5016132;28;20081;-71
2023/03/09 12:35:10;;;;;;;51.50;22.83;;;3.50;99.90;;;;;;5026021;28;20028;-72
2023/03/09 12:37:35;;;;;;;50.28;23.17;;;3.50;99.90;;;;;;5031355;28;20025;-71
2023/03/09 12:40:16;;;;;;;50.92;22.58;;;3.50;99.90;;;;;;5030014;28;20362;-71
2023/03/09 12:42:44;;;;;;;56.80;23.90;;;3.50;99.90;;;;;;5027630;28;20188;-72
2023/03/09 12:45:15;;;;;;;53.08;24.05;;;3.40;99.90;;;;;;5023486;28;20033;-72
2023/03/09 12:48:02;;;;;;;53.20;24.35;;;3.40;99.90;;;;;;5031248;28;20504;-72
2023/03/09 12:50:42;;;;;;;54.95;24.48;;;3.40;99.90;;;;;;5029555;28;20026;-72
2023/03/09 12:53:10;;;;;;;52.72;22.80;;;3.50;99.90;;;;;;5032444;28;20480;-72
2023/03/09 12:55:36;;;;;;;50.90;23.13;;;3.50;99.90;;;;;;5023157;28;20026;-72
2023/03/09 12:58:24;;;;;;;55.20;23.48;;;3.50;99.90;;;;;;5023327;28;20044;-72
2023/03/09 13:00:51;;;;;;;53.08;23.67;;;3.50;99.90;;;;;;5028464;28;20592;-73
2023/03/09 13:03:22;;;;;;;52.22;23.25;;;3.60;99.90;;;;;;5032687;28;20021;-72
2023/03/09 13:05:56;;;;;;;53.63;24.10;;;3.60;99.90;;;;;;5028370;28;20029;-72
2023/03/09 13:08:34;;;;;;;49.05;23.10;;;3.60;99.90;;;;;;5023761;28;20076;-72
2023/03/09 13:11:25;;;;;;;51.20;23.40;;;3.60;99.90;;;;;;5007211;28;20041;-71
2023/03/09 13:14:25;;;;;;;51.13;23.20;;;3.50;99.90;;;;;;5021792;28;20014;-71
2023/03/09 13:16:56;;;;;;;49.17;21.83;;;3.50;99.90;;;;;;5002014;28;20034;-73
2023/03/09 13:19:25;;;;;;;49.10;22.20;;;3.50;99.90;;;;;;5025527;28;20145;-72
2023/03/09 13:21:57;;;;;;;50.42;22.08;;;3.50;99.90;;;;;;5017681;28;20129;-72
2023/03/09 13:24:36;;;;;;;49.42;23.45;;;3.50;99.90;;;;;;5026603;28;20036;-72
2023/03/09 13:27:26;;;;;;;54.10;24.25;;;3.50;99.90;;;;;;5027749;28;20030;-72
2023/03/09 13:30:19;;;;;;;50.80;22.73;;;3.50;99.90;;;;;;5012667;28;20026;-72
2023/03/09 13:32:54;;;;;;;50.03;22.63;;;3.50;99.90;;;;;;5011448;28;20031;-73
2023/03/09 13:35:23;;;;;;;;;;;3.50;99.90;;;;;;5031024;28;20377;-71
2023/03/09 13:37:53;;;;;;;49.10;21.63;;;3.40;99.90;;;;;;5026567;28;19910;-72
2023/03/09 13:40:33;;;;;;;51.50;23.25;;;3.40;99.90;;;;;;5026237;28;20527;-73
2023/03/09 13:43:04;;;;;;;49.55;22.80;;;3.50;99.90;;;;;;5029732;28;20100;-71
2023/03/09 13:45:32;;;;;;;49.42;23.40;;;3.50;99.90;;;;;;5022985;28;20393;-72
2023/03/09 13:48:01;;;;;;;46.53;22.45;;;3.50;99.90;;;;;;5021655;28;20064;-71
2023/03/09 13:50:32;;;;;;;48.67;21.92;;;3.50;99.90;;;;;;5023578;28;20404;-72
2023/03/09 13:53:02;;;;;;;47.40;21.58;;;3.50;99.90;;;;;;5024400;28;20453;-72
2023/03/09 13:55:29;;;;;;;46.67;21.30;;;3.50;99.90;;;;;;5018267;28;20035;-73
2023/03/09 13:58:15;;;;;;;46.72;20.92;;;3.50;99.90;;;;;;5020660;28;20040;-72
2023/03/09 14:00:52;;;;;;;43.92;20.55;;;3.50;99.90;;;;;;5015057;28;20037;-71
2023/03/09 14:03:18;;;;;;;42.65;20.45;;;3.60;99.90;;;;;;5023968;28;20030;-71
2023/03/09 14:06:03;;;;;;;42.67;20.60;;;3.50;99.90;;;;;;5024168;28;20033;-71
2023/03/09 14:08:39;;;;;;;44.83;19.70;;;3.60;99.90;;;;;;5018863;28;20404;-71
2023/03/09 14:11:07;;;;;;;38.05;18.73;;;3.60;99.90;;;;;;5021566;28;20032;-71
2023/03/09 14:13:34;;;;;;;45.40;21.08;;;3.60;99.90;;;;;;5028511;28;20091;-71
2023/03/09 14:16:02;;;;;;;42.88;21.05;;;3.60;99.90;;;;;;5027566;28;20548;-71
2023/03/09 14:18:34;;;;;;;42.97;21.60;;;3.70;99.90;;;;;;5015538;28;20116;-71
2023/03/09 14:20:59;;;;;;;46.30;22.02;;;3.70;99.90;;;;;;5012963;28;20018;-71
2023/03/09 14:23:42;;;;;;;45.30;22.25;;;3.70;99.90;;;;;;5018399;28;20022;-71
2023/03/09 14:26:08;;;;;;;43.78;21.17;;;3.70;99.90;;;;;;5016631;28;20469;-71
2023/03/09 14:28:40;;;;;;;40.20;20.38;;;3.70;99.90;;;;;;5016104;28;20583;-71